sensor_id;sensor_type;location;lat;lon;timestamp;temperature;humidity
69546;SHT31;56766;52.260;20.746;2023-06-22T00:01:19;18.70;86.71
69546;SHT31;56766;52.260;20.746;2023-06-22T00:03:48;18.71;86.43
69546;SHT31;56766;52.260;20.746;2023-06-22T00:06:15;18.71;86.13
69546;SHT31;56766;52.260;20.746;2023-06-22T00:08:42;18.70;86.08
69546;SHT31;56766;52.260;20.746;2023-06-22T00:11:08;18.65;86.12
69546;SHT31;56766;52.260;20.746;2023-06-22T00:13:35;18.64;86.08
69546;SHT31;56766;52.260;20.746;2023-06-22T00:16:02;18.61;86.03
69546;SHT31;56766;52.260;20.746;2023-06-22T00:18:29;18.61;86.11
69546;SHT31;56766;52.260;20.746;2023-06-22T00:20:57;18.60;85.93
69546;SHT31;56766;52.260;20.746;2023-06-22T00:23:25;18.59;85.73
69546;SHT31;56766;52.260;20.746;2023-06-22T00:25:52;18.55;85.61
69546;SHT31;56766;52.260;20.746;2023-06-22T00:28:20;18.52;85.57
69546;SHT31;56766;52.260;20.746;2023-06-22T00:30:48;18.50;85.48
69546;SHT31;56766;52.260;20.746;2023-06-22T00:33:16;18.49;85.50
69546;SHT31;56766;52.260;20.746;2023-06-22T00:35:43;18.48;85.51
69546;SHT31;56766;52.260;20.746;2023-06-22T00:38:10;18.45;85.26
69546;SHT31;56766;52.260;20.746;2023-06-22T00:40:37;18.45;85.18
69546;SHT31;56766;52.260;20.746;2023-06-22T00:43:05;18.45;85.10
69546;SHT31;56766;52.260;20.746;2023-06-22T00:45:32;18.47;85.28
69546;SHT31;56766;52.260;20.746;2023-06-22T00:47:59;18.48;85.46
69546;SHT31;56766;52.260;20.746;2023-06-22T00:50:30;18.47;85.61
69546;SHT31;56766;52.260;20.746;2023-06-22T00:53:08;18.47;85.69
69546;SHT31;56766;52.260;20.746;2023-06-22T00:55:37;18.45;85.77
69546;SHT31;56766;52.260;20.746;2023-06-22T00:58:09;18.44;85.71
69546;SHT31;56766;52.260;20.746;2023-06-22T01:00:39;18.40;85.65
69546;SHT31;56766;52.260;20.746;2023-06-22T01:03:08;18.40;85.61
69546;SHT31;56766;52.260;20.746;2023-06-22T01:05:36;18.39;85.66
69546;SHT31;56766;52.260;20.746;2023-06-22T01:08:24;18.36;85.80
69546;SHT31;56766;52.260;20.746;2023-06-22T01:16:31;18.29;85.67
69546;SHT31;56766;52.260;20.746;2023-06-22T01:19:20;18.26;85.45
69546;SHT31;56766;52.260;20.746;2023-06-22T01:21:53;18.22;85.47
69546;SHT31;56766;52.260;20.746;2023-06-22T01:24:27;18.18;85.66
69546;SHT31;56766;52.260;20.746;2023-06-22T01:29:55;18.13;85.79
69546;SHT31;56766;52.260;20.746;2023-06-22T01:32:32;18.12;85.73
69546;SHT31;56766;52.260;20.746;2023-06-22T01:35:05;18.11;86.04
69546;SHT31;56766;52.260;20.746;2023-06-22T01:37:35;18.10;86.09
69546;SHT31;56766;52.260;20.746;2023-06-22T01:40:05;18.11;86.04
69546;SHT31;56766;52.260;20.746;2023-06-22T01:42:36;18.10;85.85
69546;SHT31;56766;52.260;20.746;2023-06-22T01:45:05;18.08;85.75
69546;SHT31;56766;52.260;20.746;2023-06-22T01:47:33;18.09;85.82
69546;SHT31;56766;52.260;20.746;2023-06-22T01:50:00;18.08;85.86
69546;SHT31;56766;52.260;20.746;2023-06-22T01:52:27;18.06;86.05
69546;SHT31;56766;52.260;20.746;2023-06-22T01:54:54;18.06;86.23
69546;SHT31;56766;52.260;20.746;2023-06-22T01:57:21;18.09;86.33
69546;SHT31;56766;52.260;20.746;2023-06-22T02:00:03;18.12;86.41
69546;SHT31;56766;52.260;20.746;2023-06-22T02:02:39;18.17;86.70
69546;SHT31;56766;52.260;20.746;2023-06-22T02:05:18;18.22;86.92
69546;SHT31;56766;52.260;20.746;2023-06-22T02:08:10;18.24;86.84
69546;SHT31;56766;52.260;20.746;2023-06-22T02:10:44;18.29;87.11
69546;SHT31;56766;52.260;20.746;2023-06-22T02:13:13;18.32;87.20
69546;SHT31;56766;52.260;20.746;2023-06-22T02:15:42;18.36;87.16
69546;SHT31;56766;52.260;20.746;2023-06-22T02:18:10;18.41;87.36
69546;SHT31;56766;52.260;20.746;2023-06-22T02:20:38;18.46;87.42
69546;SHT31;56766;52.260;20.746;2023-06-22T02:23:06;18.50;87.62
69546;SHT31;56766;52.260;20.746;2023-06-22T02:25:34;18.55;87.83
69546;SHT31;56766;52.260;20.746;2023-06-22T02:28:03;18.59;87.92
69546;SHT31;56766;52.260;20.746;2023-06-22T02:30:30;18.62;87.91
69546;SHT31;56766;52.260;20.746;2023-06-22T02:32:56;18.65;87.95
69546;SHT31;56766;52.260;20.746;2023-06-22T02:35:30;18.70;87.95
69546;SHT31;56766;52.260;20.746;2023-06-22T02:38:03;18.73;87.83
69546;SHT31;56766;52.260;20.746;2023-06-22T02:40:31;18.77;87.75
69546;SHT31;56766;52.260;20.746;2023-06-22T02:42:58;18.85;87.76
69546;SHT31;56766;52.260;20.746;2023-06-22T02:45:29;18.90;87.77
69546;SHT31;56766;52.260;20.746;2023-06-22T02:47:56;18.96;87.83
69546;SHT31;56766;52.260;20.746;2023-06-22T02:50:23;19.01;87.73
69546;SHT31;56766;52.260;20.746;2023-06-22T02:52:50;19.07;87.82
69546;SHT31;56766;52.260;20.746;2023-06-22T02:55:17;19.13;87.96
69546;SHT31;56766;52.260;20.746;2023-06-22T02:57:44;19.18;88.20
69546;SHT31;56766;52.260;20.746;2023-06-22T03:00:13;19.23;88.31
69546;SHT31;56766;52.260;20.746;2023-06-22T03:02:48;19.27;88.34
69546;SHT31;56766;52.260;20.746;2023-06-22T03:05:16;19.32;88.36
69546;SHT31;56766;52.260;20.746;2023-06-22T03:07:45;19.36;88.46
69546;SHT31;56766;52.260;20.746;2023-06-22T03:10:13;19.43;88.37
69546;SHT31;56766;52.260;20.746;2023-06-22T03:12:42;19.49;88.40
69546;SHT31;56766;52.260;20.746;2023-06-22T03:15:11;19.55;88.23
69546;SHT31;56766;52.260;20.746;2023-06-22T03:17:40;19.61;88.12
69546;SHT31;56766;52.260;20.746;2023-06-22T03:20:08;19.66;87.97
69546;SHT31;56766;52.260;20.746;2023-06-22T03:22:39;19.71;87.77
69546;SHT31;56766;52.260;20.746;2023-06-22T03:25:09;19.75;87.58
69546;SHT31;56766;52.260;20.746;2023-06-22T03:27:40;19.78;87.50
69546;SHT31;56766;52.260;20.746;2023-06-22T03:30:10;19.81;87.41
69546;SHT31;56766;52.260;20.746;2023-06-22T03:32:38;19.90;87.34
69546;SHT31;56766;52.260;20.746;2023-06-22T03:35:05;20.00;87.26
69546;SHT31;56766;52.260;20.746;2023-06-22T03:37:32;20.11;87.07
69546;SHT31;56766;52.260;20.746;2023-06-22T03:39:59;20.17;86.93
69546;SHT31;56766;52.260;20.746;2023-06-22T03:42:26;20.27;86.77
69546;SHT31;56766;52.260;20.746;2023-06-22T03:44:53;20.42;86.55
69546;SHT31;56766;52.260;20.746;2023-06-22T03:47:20;20.63;86.47
69546;SHT31;56766;52.260;20.746;2023-06-22T03:49:46;20.84;86.22
69546;SHT31;56766;52.260;20.746;2023-06-22T03:52:13;21.05;85.88
69546;SHT31;56766;52.260;20.746;2023-06-22T03:54:40;21.21;85.53
69546;SHT31;56766;52.260;20.746;2023-06-22T03:57:07;21.35;85.33
69546;SHT31;56766;52.260;20.746;2023-06-22T03:59:33;21.48;85.08
69546;SHT31;56766;52.260;20.746;2023-06-22T04:02:00;21.61;84.88
69546;SHT31;56766;52.260;20.746;2023-06-22T04:04:27;21.74;84.60
69546;SHT31;56766;52.260;20.746;2023-06-22T04:06:54;21.89;84.40
69546;SHT31;56766;52.260;20.746;2023-06-22T04:09:20;22.03;84.09
69546;SHT31;56766;52.260;20.746;2023-06-22T04:11:48;22.17;83.84
69546;SHT31;56766;52.260;20.746;2023-06-22T04:14:14;22.27;83.56
69546;SHT31;56766;52.260;20.746;2023-06-22T04:16:41;22.35;83.32
69546;SHT31;56766;52.260;20.746;2023-06-22T04:19:08;22.43;82.89
69546;SHT31;56766;52.260;20.746;2023-06-22T04:21:40;22.49;82.75
69546;SHT31;56766;52.260;20.746;2023-06-22T04:24:07;22.66;82.53
69546;SHT31;56766;52.260;20.746;2023-06-22T04:26:33;22.91;82.11
69546;SHT31;56766;52.260;20.746;2023-06-22T04:29:04;23.18;81.40
69546;SHT31;56766;52.260;20.746;2023-06-22T04:31:32;23.35;80.72
69546;SHT31;56766;52.260;20.746;2023-06-22T04:34:04;23.45;80.67
69546;SHT31;56766;52.260;20.746;2023-06-22T04:36:40;23.62;80.30
69546;SHT31;56766;52.260;20.746;2023-06-22T04:39:10;23.79;79.71
69546;SHT31;56766;52.260;20.746;2023-06-22T04:41:41;23.92;79.14
69546;SHT31;56766;52.260;20.746;2023-06-22T04:44:12;24.02;78.60
69546;SHT31;56766;52.260;20.746;2023-06-22T04:46:51;24.03;78.14
69546;SHT31;56766;52.260;20.746;2023-06-22T04:49:30;23.96;77.83
69546;SHT31;56766;52.260;20.746;2023-06-22T04:52:04;24.02;77.90
69546;SHT31;56766;52.260;20.746;2023-06-22T04:54:32;24.29;77.93
69546;SHT31;56766;52.260;20.746;2023-06-22T04:57:01;24.59;77.62
69546;SHT31;56766;52.260;20.746;2023-06-22T04:59:30;24.86;76.13
69546;SHT31;56766;52.260;20.746;2023-06-22T05:02:00;24.96;75.63
69546;SHT31;56766;52.260;20.746;2023-06-22T05:04:29;25.19;75.11
69546;SHT31;56766;52.260;20.746;2023-06-22T05:06:59;25.52;75.24
69546;SHT31;56766;52.260;20.746;2023-06-22T05:09:26;25.91;74.42
69546;SHT31;56766;52.260;20.746;2023-06-22T05:11:54;26.04;74.02
69546;SHT31;56766;52.260;20.746;2023-06-22T05:14:20;26.20;73.53
69546;SHT31;56766;52.260;20.746;2023-06-22T05:16:49;26.32;72.47
69546;SHT31;56766;52.260;20.746;2023-06-22T05:19:18;26.32;71.93
69546;SHT31;56766;52.260;20.746;2023-06-22T05:21:45;26.20;71.34
69546;SHT31;56766;52.260;20.746;2023-06-22T05:24:12;26.13;71.51
69546;SHT31;56766;52.260;20.746;2023-06-22T05:26:39;26.02;71.11
69546;SHT31;56766;52.260;20.746;2023-06-22T05:29:05;25.89;70.99
69546;SHT31;56766;52.260;20.746;2023-06-22T05:31:33;25.92;71.36
69546;SHT31;56766;52.260;20.746;2023-06-22T05:33:59;25.90;71.32
69546;SHT31;56766;52.260;20.746;2023-06-22T05:36:27;25.89;71.31
69546;SHT31;56766;52.260;20.746;2023-06-22T05:38:57;25.80;70.69
69546;SHT31;56766;52.260;20.746;2023-06-22T05:41:24;25.64;71.07
69546;SHT31;56766;52.260;20.746;2023-06-22T05:43:51;25.51;70.92
69546;SHT31;56766;52.260;20.746;2023-06-22T05:46:19;25.37;71.19
69546;SHT31;56766;52.260;20.746;2023-06-22T05:48:46;25.19;70.77
69546;SHT31;56766;52.260;20.746;2023-06-22T05:51:12;25.00;71.25
69546;SHT31;56766;52.260;20.746;2023-06-22T05:53:39;24.97;71.75
69546;SHT31;56766;52.260;20.746;2023-06-22T05:56:06;25.01;71.43
69546;SHT31;56766;52.260;20.746;2023-06-22T05:58:32;24.97;71.28
69546;SHT31;56766;52.260;20.746;2023-06-22T06:00:59;24.91;71.69
69546;SHT31;56766;52.260;20.746;2023-06-22T06:03:27;25.03;71.68
69546;SHT31;56766;52.260;20.746;2023-06-22T06:05:55;25.11;70.91
69546;SHT31;56766;52.260;20.746;2023-06-22T06:08:22;25.12;71.43
69546;SHT31;56766;52.260;20.746;2023-06-22T06:10:48;25.27;71.24
69546;SHT31;56766;52.260;20.746;2023-06-22T06:13:15;25.40;71.23
69546;SHT31;56766;52.260;20.746;2023-06-22T06:15:42;25.50;70.94
69546;SHT31;56766;52.260;20.746;2023-06-22T06:18:08;25.56;70.89
69546;SHT31;56766;52.260;20.746;2023-06-22T06:20:35;25.69;70.94
69546;SHT31;56766;52.260;20.746;2023-06-22T06:23:02;25.76;70.04
69546;SHT31;56766;52.260;20.746;2023-06-22T06:25:28;25.69;69.27
69546;SHT31;56766;52.260;20.746;2023-06-22T06:27:55;25.58;69.26
69546;SHT31;56766;52.260;20.746;2023-06-22T06:30:22;25.62;69.99
69546;SHT31;56766;52.260;20.746;2023-06-22T06:32:50;25.72;69.96
69546;SHT31;56766;52.260;20.746;2023-06-22T06:35:17;25.86;69.73
69546;SHT31;56766;52.260;20.746;2023-06-22T06:37:47;25.89;69.48
69546;SHT31;56766;52.260;20.746;2023-06-22T06:40:16;25.90;68.93
69546;SHT31;56766;52.260;20.746;2023-06-22T06:42:46;25.90;68.36
69546;SHT31;56766;52.260;20.746;2023-06-22T06:45:20;25.89;68.97
69546;SHT31;56766;52.260;20.746;2023-06-22T06:47:50;25.91;68.10
69546;SHT31;56766;52.260;20.746;2023-06-22T06:50:18;25.89;68.18
69546;SHT31;56766;52.260;20.746;2023-06-22T06:52:46;25.98;68.59
69546;SHT31;56766;52.260;20.746;2023-06-22T06:55:12;25.95;67.36
69546;SHT31;56766;52.260;20.746;2023-06-22T06:57:41;25.89;67.92
69546;SHT31;56766;52.260;20.746;2023-06-22T07:00:11;25.94;68.32
69546;SHT31;56766;52.260;20.746;2023-06-22T07:02:44;26.08;68.40
69546;SHT31;56766;52.260;20.746;2023-06-22T07:05:12;26.15;66.53
69546;SHT31;56766;52.260;20.746;2023-06-22T07:07:40;26.11;66.46
69546;SHT31;56766;52.260;20.746;2023-06-22T07:10:08;26.18;66.17
69546;SHT31;56766;52.260;20.746;2023-06-22T07:12:36;26.22;65.72
69546;SHT31;56766;52.260;20.746;2023-06-22T07:15:08;26.27;65.72
69546;SHT31;56766;52.260;20.746;2023-06-22T07:17:37;26.35;65.87
69546;SHT31;56766;52.260;20.746;2023-06-22T07:20:06;26.43;65.15
69546;SHT31;56766;52.260;20.746;2023-06-22T07:22:40;26.43;65.31
69546;SHT31;56766;52.260;20.746;2023-06-22T07:25:09;26.45;64.73
69546;SHT31;56766;52.260;20.746;2023-06-22T07:27:38;26.46;65.13
69546;SHT31;56766;52.260;20.746;2023-06-22T07:30:10;26.55;64.03
69546;SHT31;56766;52.260;20.746;2023-06-22T07:32:38;26.50;63.71
69546;SHT31;56766;52.260;20.746;2023-06-22T07:35:05;26.51;63.99
69546;SHT31;56766;52.260;20.746;2023-06-22T07:37:33;26.60;64.36
69546;SHT31;56766;52.260;20.746;2023-06-22T07:40:00;26.72;64.36
69546;SHT31;56766;52.260;20.746;2023-06-22T07:42:27;26.93;63.54
69546;SHT31;56766;52.260;20.746;2023-06-22T07:45:00;27.02;63.08
69546;SHT31;56766;52.260;20.746;2023-06-22T07:47:27;26.78;62.10
69546;SHT31;56766;52.260;20.746;2023-06-22T07:49:55;26.60;62.37
69546;SHT31;56766;52.260;20.746;2023-06-22T07:52:28;26.75;62.28
69546;SHT31;56766;52.260;20.746;2023-06-22T07:54:56;27.03;62.68
69546;SHT31;56766;52.260;20.746;2023-06-22T07:57:23;27.28;61.88
69546;SHT31;56766;52.260;20.746;2023-06-22T07:59:49;27.35;60.65
69546;SHT31;56766;52.260;20.746;2023-06-22T08:02:16;27.38;60.78
69546;SHT31;56766;52.260;20.746;2023-06-22T08:04:42;27.38;60.02
69546;SHT31;56766;52.260;20.746;2023-06-22T08:07:09;27.46;60.86
69546;SHT31;56766;52.260;20.746;2023-06-22T08:09:36;27.61;59.89
69546;SHT31;56766;52.260;20.746;2023-06-22T08:12:03;27.69;59.66
69546;SHT31;56766;52.260;20.746;2023-06-22T08:14:30;27.78;58.66
69546;SHT31;56766;52.260;20.746;2023-06-22T08:16:57;27.80;57.00
69546;SHT31;56766;52.260;20.746;2023-06-22T08:19:24;27.70;56.85
69546;SHT31;56766;52.260;20.746;2023-06-22T08:21:50;27.73;56.67
69546;SHT31;56766;52.260;20.746;2023-06-22T08:24:17;27.88;56.96
69546;SHT31;56766;52.260;20.746;2023-06-22T08:26:44;27.92;55.28
69546;SHT31;56766;52.260;20.746;2023-06-22T08:29:11;27.93;55.30
69546;SHT31;56766;52.260;20.746;2023-06-22T08:31:37;27.98;55.16
69546;SHT31;56766;52.260;20.746;2023-06-22T08:34:04;28.06;54.32
69546;SHT31;56766;52.260;20.746;2023-06-22T08:36:31;28.00;53.30
69546;SHT31;56766;52.260;20.746;2023-06-22T08:39:01;27.98;53.75
69546;SHT31;56766;52.260;20.746;2023-06-22T08:41:29;27.98;53.30
69546;SHT31;56766;52.260;20.746;2023-06-22T08:43:56;28.05;54.94
69546;SHT31;56766;52.260;20.746;2023-06-22T08:46:23;28.27;54.94
69546;SHT31;56766;52.260;20.746;2023-06-22T08:48:56;28.44;54.28
69546;SHT31;56766;52.260;20.746;2023-06-22T08:51:24;28.56;53.70
69546;SHT31;56766;52.260;20.746;2023-06-22T08:53:55;28.66;52.94
69546;SHT31;56766;52.260;20.746;2023-06-22T08:56:22;28.66;51.73
69546;SHT31;56766;52.260;20.746;2023-06-22T08:58:49;28.64;52.34
69546;SHT31;56766;52.260;20.746;2023-06-22T09:01:16;28.70;51.01
69546;SHT31;56766;52.260;20.746;2023-06-22T09:03:45;28.69;50.90
69546;SHT31;56766;52.260;20.746;2023-06-22T09:06:21;28.74;50.56
69546;SHT31;56766;52.260;20.746;2023-06-22T09:08:48;28.72;49.79
69546;SHT31;56766;52.260;20.746;2023-06-22T09:11:15;28.77;50.38
69546;SHT31;56766;52.260;20.746;2023-06-22T09:13:43;28.94;51.01
69546;SHT31;56766;52.260;20.746;2023-06-22T09:16:10;29.10;51.23
69546;SHT31;56766;52.260;20.746;2023-06-22T09:18:38;29.30;50.85
69546;SHT31;56766;52.260;20.746;2023-06-22T09:21:05;29.42;49.48
69546;SHT31;56766;52.260;20.746;2023-06-22T09:23:31;29.50;49.75
69546;SHT31;56766;52.260;20.746;2023-06-22T09:25:58;29.60;50.01
69546;SHT31;56766;52.260;20.746;2023-06-22T09:28:25;29.69;50.15
69546;SHT31;56766;52.260;20.746;2023-06-22T09:30:52;29.78;49.84
69546;SHT31;56766;52.260;20.746;2023-06-22T09:33:25;29.86;50.42
69546;SHT31;56766;52.260;20.746;2023-06-22T09:35:52;29.93;49.14
69546;SHT31;56766;52.260;20.746;2023-06-22T09:38:19;29.84;48.92
69546;SHT31;56766;52.260;20.746;2023-06-22T09:40:46;29.89;49.03
69546;SHT31;56766;52.260;20.746;2023-06-22T09:43:13;29.94;48.76
69546;SHT31;56766;52.260;20.746;2023-06-22T09:45:39;30.08;49.42
69546;SHT31;56766;52.260;20.746;2023-06-22T09:48:06;30.16;48.78
69546;SHT31;56766;52.260;20.746;2023-06-22T09:50:33;30.31;48.48
69546;SHT31;56766;52.260;20.746;2023-06-22T09:53:00;30.40;48.20
69546;SHT31;56766;52.260;20.746;2023-06-22T09:55:26;30.38;48.83
69546;SHT31;56766;52.260;20.746;2023-06-22T09:57:53;30.54;48.93
69546;SHT31;56766;52.260;20.746;2023-06-22T10:00:21;30.75;48.06
69546;SHT31;56766;52.260;20.746;2023-06-22T10:02:49;30.84;46.88
69546;SHT31;56766;52.260;20.746;2023-06-22T10:05:17;30.75;46.93
69546;SHT31;56766;52.260;20.746;2023-06-22T10:07:44;30.78;47.27
69546;SHT31;56766;52.260;20.746;2023-06-22T10:10:12;30.82;47.31
69546;SHT31;56766;52.260;20.746;2023-06-22T10:12:54;30.86;47.12
69546;SHT31;56766;52.260;20.746;2023-06-22T10:15:24;30.81;45.24
69546;SHT31;56766;52.260;20.746;2023-06-22T10:17:50;30.70;45.46
69546;SHT31;56766;52.260;20.746;2023-06-22T10:20:17;30.49;45.89
69546;SHT31;56766;52.260;20.746;2023-06-22T10:22:45;30.34;46.66
69546;SHT31;56766;52.260;20.746;2023-06-22T10:25:13;30.45;45.91
69546;SHT31;56766;52.260;20.746;2023-06-22T10:27:40;30.53;46.13
69546;SHT31;56766;52.260;20.746;2023-06-22T10:30:11;30.72;47.17
69546;SHT31;56766;52.260;20.746;2023-06-22T10:32:40;30.93;47.27
69546;SHT31;56766;52.260;20.746;2023-06-22T10:35:09;31.14;46.29
69546;SHT31;56766;52.260;20.746;2023-06-22T10:37:46;31.23;44.75
69546;SHT31;56766;52.260;20.746;2023-06-22T10:40:15;31.06;44.21
69546;SHT31;56766;52.260;20.746;2023-06-22T10:42:43;31.12;44.92
69546;SHT31;56766;52.260;20.746;2023-06-22T10:45:10;31.36;44.95
69546;SHT31;56766;52.260;20.746;2023-06-22T10:47:37;31.67;44.73
69546;SHT31;56766;52.260;20.746;2023-06-22T10:50:05;31.87;44.95
69546;SHT31;56766;52.260;20.746;2023-06-22T10:52:32;32.11;44.74
69546;SHT31;56766;52.260;20.746;2023-06-22T10:54:59;32.32;43.42
69546;SHT31;56766;52.260;20.746;2023-06-22T10:57:26;32.34;41.79
69546;SHT31;56766;52.260;20.746;2023-06-22T10:59:52;32.38;43.18
69546;SHT31;56766;52.260;20.746;2023-06-22T11:02:19;32.60;43.26
69546;SHT31;56766;52.260;20.746;2023-06-22T11:04:46;32.52;41.99
69546;SHT31;56766;52.260;20.746;2023-06-22T11:07:15;32.20;40.93
69546;SHT31;56766;52.260;20.746;2023-06-22T11:09:45;31.95;42.29
69546;SHT31;56766;52.260;20.746;2023-06-22T11:12:12;31.96;42.72
69546;SHT31;56766;52.260;20.746;2023-06-22T11:14:39;31.86;42.95
69546;SHT31;56766;52.260;20.746;2023-06-22T11:17:05;31.82;43.28
69546;SHT31;56766;52.260;20.746;2023-06-22T11:19:33;31.95;42.38
69546;SHT31;56766;52.260;20.746;2023-06-22T11:21:59;32.15;41.58
69546;SHT31;56766;52.260;20.746;2023-06-22T11:24:26;32.10;41.07
69546;SHT31;56766;52.260;20.746;2023-06-22T11:26:53;32.14;41.56
69546;SHT31;56766;52.260;20.746;2023-06-22T11:29:19;32.13;41.32
69546;SHT31;56766;52.260;20.746;2023-06-22T11:31:46;32.06;40.78
69546;SHT31;56766;52.260;20.746;2023-06-22T11:34:13;31.99;40.63
69546;SHT31;56766;52.260;20.746;2023-06-22T11:36:39;31.96;40.74
69546;SHT31;56766;52.260;20.746;2023-06-22T11:39:08;32.02;40.71
69546;SHT31;56766;52.260;20.746;2023-06-22T11:41:36;32.10;40.50
69546;SHT31;56766;52.260;20.746;2023-06-22T11:44:02;31.89;40.21
69546;SHT31;56766;52.260;20.746;2023-06-22T11:46:32;31.72;40.98
69546;SHT31;56766;52.260;20.746;2023-06-22T11:48:59;31.77;40.68
69546;SHT31;56766;52.260;20.746;2023-06-22T11:51:26;31.75;40.14
69546;SHT31;56766;52.260;20.746;2023-06-22T11:53:53;31.53;40.29
69546;SHT31;56766;52.260;20.746;2023-06-22T11:56:20;31.24;41.27
69546;SHT31;56766;52.260;20.746;2023-06-22T11:58:47;31.16;41.97
69546;SHT31;56766;52.260;20.746;2023-06-22T12:01:13;31.25;41.33
69546;SHT31;56766;52.260;20.746;2023-06-22T12:03:41;31.09;41.23
69546;SHT31;56766;52.260;20.746;2023-06-22T12:06:10;31.06;40.47
69546;SHT31;56766;52.260;20.746;2023-06-22T12:08:37;31.08;40.46
69546;SHT31;56766;52.260;20.746;2023-06-22T12:11:04;31.27;40.78
69546;SHT31;56766;52.260;20.746;2023-06-22T12:13:31;31.58;40.51
69546;SHT31;56766;52.260;20.746;2023-06-22T12:15:57;31.75;40.57
69546;SHT31;56766;52.260;20.746;2023-06-22T12:18:24;31.95;41.15
69546;SHT31;56766;52.260;20.746;2023-06-22T12:20:51;32.09;39.83
69546;SHT31;56766;52.260;20.746;2023-06-22T12:23:17;31.95;39.44
69546;SHT31;56766;52.260;20.746;2023-06-22T12:25:46;32.04;40.58
69546;SHT31;56766;52.260;20.746;2023-06-22T12:28:12;32.27;40.41
69546;SHT31;56766;52.260;20.746;2023-06-22T12:30:39;32.48;39.52
69546;SHT31;56766;52.260;20.746;2023-06-22T12:33:06;32.37;38.40
69546;SHT31;56766;52.260;20.746;2023-06-22T12:35:32;32.02;38.05
69546;SHT31;56766;52.260;20.746;2023-06-22T12:37:59;31.53;38.88
69546;SHT31;56766;52.260;20.746;2023-06-22T12:40:25;31.44;39.70
69546;SHT31;56766;52.260;20.746;2023-06-22T12:42:52;31.60;39.00
69546;SHT31;56766;52.260;20.746;2023-06-22T12:45:19;31.67;39.21
69546;SHT31;56766;52.260;20.746;2023-06-22T12:47:47;31.86;39.04
69546;SHT31;56766;52.260;20.746;2023-06-22T12:50:17;32.07;39.19
69546;SHT31;56766;52.260;20.746;2023-06-22T12:52:43;32.13;38.10
69546;SHT31;56766;52.260;20.746;2023-06-22T12:55:11;32.10;38.67
69546;SHT31;56766;52.260;20.746;2023-06-22T12:57:38;32.14;38.38
69546;SHT31;56766;52.260;20.746;2023-06-22T13:00:05;32.22;37.94
69546;SHT31;56766;52.260;20.746;2023-06-22T13:02:34;32.02;37.73
69546;SHT31;56766;52.260;20.746;2023-06-22T13:05:01;31.94;37.68
69546;SHT31;56766;52.260;20.746;2023-06-22T13:07:28;31.96;37.27
69546;SHT31;56766;52.260;20.746;2023-06-22T13:09:55;31.78;37.45
69546;SHT31;56766;52.260;20.746;2023-06-22T13:12:22;31.51;37.87
69546;SHT31;56766;52.260;20.746;2023-06-22T13:14:49;31.28;38.85
69546;SHT31;56766;52.260;20.746;2023-06-22T13:17:16;31.33;39.39
69546;SHT31;56766;52.260;20.746;2023-06-22T13:19:42;31.54;39.14
69546;SHT31;56766;52.260;20.746;2023-06-22T13:22:32;31.77;39.23
69546;SHT31;56766;52.260;20.746;2023-06-22T13:25:06;31.85;38.62
69546;SHT31;56766;52.260;20.746;2023-06-22T13:27:34;31.94;38.58
69546;SHT31;56766;52.260;20.746;2023-06-22T13:30:00;31.87;37.90
69546;SHT31;56766;52.260;20.746;2023-06-22T13:32:29;31.85;38.27
69546;SHT31;56766;52.260;20.746;2023-06-22T13:34:55;31.98;38.74
69546;SHT31;56766;52.260;20.746;2023-06-22T13:37:22;32.14;38.84
69546;SHT31;56766;52.260;20.746;2023-06-22T13:39:48;31.99;38.92
69546;SHT31;56766;52.260;20.746;2023-06-22T13:42:15;31.59;39.56
69546;SHT31;56766;52.260;20.746;2023-06-22T13:44:42;31.33;40.31
69546;SHT31;56766;52.260;20.746;2023-06-22T13:47:09;31.33;40.35
69546;SHT31;56766;52.260;20.746;2023-06-22T13:49:35;31.45;40.23
69546;SHT31;56766;52.260;20.746;2023-06-22T13:52:02;31.66;39.90
69546;SHT31;56766;52.260;20.746;2023-06-22T13:54:30;31.82;39.48
69546;SHT31;56766;52.260;20.746;2023-06-22T13:56:57;31.94;40.16
69546;SHT31;56766;52.260;20.746;2023-06-22T13:59:23;32.13;40.38
69546;SHT31;56766;52.260;20.746;2023-06-22T14:01:53;32.28;39.97
69546;SHT31;56766;52.260;20.746;2023-06-22T14:04:22;32.37;39.16
69546;SHT31;56766;52.260;20.746;2023-06-22T14:06:50;32.25;38.79
69546;SHT31;56766;52.260;20.746;2023-06-22T14:09:16;32.24;39.48
69546;SHT31;56766;52.260;20.746;2023-06-22T14:11:43;32.15;39.04
69546;SHT31;56766;52.260;20.746;2023-06-22T14:14:10;31.77;38.86
69546;SHT31;56766;52.260;20.746;2023-06-22T14:16:36;31.29;39.02
69546;SHT31;56766;52.260;20.746;2023-06-22T14:19:03;30.98;39.78
69546;SHT31;56766;52.260;20.746;2023-06-22T14:21:30;30.94;39.83
69546;SHT31;56766;52.260;20.746;2023-06-22T14:23:56;31.17;40.06
69546;SHT31;56766;52.260;20.746;2023-06-22T14:26:23;31.48;39.51
69546;SHT31;56766;52.260;20.746;2023-06-22T14:28:50;31.50;38.33
69546;SHT31;56766;52.260;20.746;2023-06-22T14:31:18;31.42;38.74
69546;SHT31;56766;52.260;20.746;2023-06-22T14:33:47;31.33;38.82
69546;SHT31;56766;52.260;20.746;2023-06-22T14:36:16;31.17;39.05
69546;SHT31;56766;52.260;20.746;2023-06-22T14:38:43;31.16;38.92
69546;SHT31;56766;52.260;20.746;2023-06-22T14:41:10;31.12;39.21
69546;SHT31;56766;52.260;20.746;2023-06-22T14:43:37;31.21;39.57
69546;SHT31;56766;52.260;20.746;2023-06-22T14:46:04;31.38;39.32
69546;SHT31;56766;52.260;20.746;2023-06-22T14:48:30;31.46;38.92
69546;SHT31;56766;52.260;20.746;2023-06-22T14:50:57;31.52;38.30
69546;SHT31;56766;52.260;20.746;2023-06-22T14:53:24;31.41;37.03
69546;SHT31;56766;52.260;20.746;2023-06-22T14:55:50;31.26;37.61
69546;SHT31;56766;52.260;20.746;2023-06-22T14:58:17;31.28;37.49
69546;SHT31;56766;52.260;20.746;2023-06-22T15:00:44;31.22;37.33
69546;SHT31;56766;52.260;20.746;2023-06-22T15:03:10;31.07;36.90
69546;SHT31;56766;52.260;20.746;2023-06-22T15:05:45;30.94;37.22
69546;SHT31;56766;52.260;20.746;2023-06-22T15:08:12;30.89;37.33
69546;SHT31;56766;52.260;20.746;2023-06-22T15:10:39;30.83;37.37
69546;SHT31;56766;52.260;20.746;2023-06-22T15:13:06;30.86;37.71
69546;SHT31;56766;52.260;20.746;2023-06-22T15:15:32;30.91;38.03
69546;SHT31;56766;52.260;20.746;2023-06-22T15:18:00;31.00;38.14
69546;SHT31;56766;52.260;20.746;2023-06-22T15:20:27;31.08;38.33
69546;SHT31;56766;52.260;20.746;2023-06-22T15:22:54;31.06;38.22
69546;SHT31;56766;52.260;20.746;2023-06-22T15:25:21;31.07;38.12
69546;SHT31;56766;52.260;20.746;2023-06-22T15:27:48;31.01;38.04
69546;SHT31;56766;52.260;20.746;2023-06-22T15:30:15;30.89;38.61